createdAt,value
2022-09-21T00:01:10.106Z,99.90
2022-09-21T00:03:41.332Z,99.90
2022-09-21T00:06:10.636Z,99.90
2022-09-21T00:08:39.276Z,99.90
2022-09-21T00:11:08.699Z,99.90
2022-09-21T00:13:37.828Z,99.90
2022-09-21T00:16:06.988Z,99.90
2022-09-21T00:18:36.208Z,99.90
2022-09-21T00:21:09.463Z,99.90
2022-09-21T00:23:38.232Z,99.90
2022-09-21T00:26:08.136Z,99.90
2022-09-21T00:28:36.595Z,99.90
2022-09-21T00:31:06.256Z,99.90
2022-09-21T00:33:34.769Z,99.90
2022-09-21T00:36:04.768Z,99.90
2022-09-21T00:38:34.704Z,99.90
2022-09-21T00:41:03.268Z,99.90
2022-09-21T00:43:33.411Z,99.90
2022-09-21T00:46:03.368Z,99.90
2022-09-21T00:48:32.060Z,99.90
2022-09-21T00:51:02.977Z,99.90
2022-09-21T00:53:32.032Z,99.90
2022-09-21T00:56:02.230Z,99.90
2022-09-21T00:58:32.668Z,99.90
2022-09-21T01:01:01.385Z,99.90
2022-09-21T01:03:31.234Z,99.90
2022-09-21T01:05:59.790Z,99.90
2022-09-21T01:08:28.273Z,99.90
2022-09-21T01:11:16.328Z,99.90
2022-09-21T01:13:50.586Z,99.90
2022-09-21T01:16:20.964Z,99.90
2022-09-21T01:18:52.958Z,99.90
2022-09-21T01:21:22.486Z,99.90
2022-09-21T01:24:27.536Z,99.90
2022-09-21T01:27:26.704Z,99.90
2022-09-21T01:29:58.503Z,99.90
2022-09-21T01:32:28.007Z,99.90
2022-09-21T01:34:58.258Z,99.90
2022-09-21T01:37:27.823Z,99.90
2022-09-21T01:39:58.221Z,99.90
2022-09-21T01:42:26.934Z,99.90
2022-09-21T01:44:56.920Z,99.90
2022-09-21T01:47:25.619Z,99.90
2022-09-21T01:49:55.300Z,99.90
2022-09-21T01:52:27.256Z,99.90
2022-09-21T01:54:57.634Z,99.90
2022-09-21T01:57:31.187Z,99.90
2022-09-21T02:00:01.566Z,99.90
2022-09-21T02:02:33.100Z,99.90
2022-09-21T02:05:01.881Z,99.90
2022-09-21T02:07:30.171Z,99.90
2022-09-21T02:09:58.444Z,99.90
2022-09-21T02:12:26.799Z,99.90
2022-09-21T02:14:55.573Z,99.90
2022-09-21T02:17:34.900Z,99.90
2022-09-21T02:20:08.318Z,99.90
2022-09-21T02:22:40.769Z,99.90
2022-09-21T02:25:10.323Z,99.90
2022-09-21T02:27:44.433Z,99.90
2022-09-21T02:30:17.453Z,99.90
2022-09-21T02:32:51.298Z,99.90
2022-09-21T02:35:26.996Z,99.90
2022-09-21T02:37:56.855Z,99.90
2022-09-21T02:40:29.976Z,99.90
2022-09-21T02:42:59.503Z,99.90
2022-09-21T02:45:32.078Z,99.90
2022-09-21T02:48:03.896Z,99.90
2022-09-21T02:50:34.479Z,99.90
2022-09-21T02:53:02.983Z,99.90
2022-09-21T02:55:31.243Z,99.90
2022-09-21T02:57:59.525Z,99.90
2022-09-21T03:00:27.828Z,99.90
2022-09-21T03:02:56.117Z,99.90
2022-09-21T03:05:25.813Z,99.90
2022-09-21T03:07:54.092Z,99.90
2022-09-21T03:10:22.364Z,99.90
2022-09-21T03:12:50.657Z,99.90
2022-09-21T03:15:18.949Z,99.90
2022-09-21T03:17:47.225Z,99.90
2022-09-21T03:20:16.461Z,99.90
2022-09-21T03:22:46.084Z,99.90
2022-09-21T03:25:14.483Z,99.90
2022-09-21T03:27:42.765Z,99.90
2022-09-21T03:30:12.153Z,99.90
2022-09-21T03:32:40.460Z,99.90
2022-09-21T03:35:09.417Z,99.90
2022-09-21T03:37:41.171Z,99.90
2022-09-21T03:40:12.610Z,99.90
2022-09-21T03:42:41.233Z,99.90
2022-09-21T03:45:10.400Z,99.90
2022-09-21T03:47:39.117Z,99.90
2022-09-21T03:50:10.197Z,99.90
2022-09-21T03:52:39.298Z,99.90
2022-09-21T03:55:08.238Z,99.90
2022-09-21T03:57:38.765Z,99.90
2022-09-21T04:00:08.674Z,99.90
2022-09-21T04:02:37.020Z,99.90
2022-09-21T04:05:06.904Z,99.90
2022-09-21T04:07:35.720Z,99.90
2022-09-21T04:10:04.263Z,99.90
2022-09-21T04:12:34.475Z,99.90
2022-09-21T04:15:07.381Z,99.90
2022-09-21T04:17:35.686Z,99.90
2022-09-21T04:20:04.267Z,99.90
2022-09-21T04:22:32.572Z,99.90
2022-09-21T04:25:01.473Z,99.90
2022-09-21T04:27:29.774Z,99.90
2022-09-21T04:29:58.074Z,99.90
2022-09-21T04:32:27.796Z,99.90
2022-09-21T04:34:56.088Z,99.90
2022-09-21T04:37:24.391Z,99.90
2022-09-21T04:39:52.758Z,99.90
2022-09-21T04:42:21.045Z,99.90
2022-09-21T04:44:49.332Z,99.90
2022-09-21T04:47:17.598Z,99.90
2022-09-21T04:49:47.276Z,99.90
2022-09-21T04:52:18.968Z,99.90
2022-09-21T04:54:47.836Z,99.90
2022-09-21T04:57:16.163Z,99.90
2022-09-21T04:59:44.486Z,99.90
2022-09-21T05:02:12.764Z,99.90
2022-09-21T05:04:41.056Z,99.90
2022-09-21T05:07:10.717Z,99.90
2022-09-21T05:09:56.862Z,99.90
2022-09-21T05:12:25.288Z,99.90
2022-09-21T05:14:53.650Z,99.90
2022-09-21T05:17:22.869Z,99.90
2022-09-21T05:19:51.188Z,99.90
2022-09-21T05:22:20.961Z,99.90
2022-09-21T05:24:49.278Z,99.90
2022-09-21T05:27:17.578Z,99.90
2022-09-21T05:29:48.575Z,99.90
2022-09-21T05:32:19.912Z,99.90
2022-09-21T05:34:54.464Z,99.90
2022-09-21T05:37:41.906Z,99.90
2022-09-21T05:40:11.184Z,99.90
2022-09-21T05:42:39.974Z,99.90
2022-09-21T05:45:10.760Z,99.90
2022-09-21T05:47:40.965Z,99.90
2022-09-21T05:50:19.845Z,99.90
2022-09-21T05:52:52.557Z,99.90
2022-09-21T05:55:25.163Z,99.90
2022-09-21T05:57:56.105Z,99.90
2022-09-21T06:00:25.169Z,99.90
2022-09-21T06:03:06.861Z,99.90
2022-09-21T06:05:35.165Z,99.90
2022-09-21T06:08:04.818Z,99.90
2022-09-21T06:10:34.627Z,99.90
2022-09-21T06:13:02.917Z,99.90
2022-09-21T06:15:31.239Z,99.90
2022-09-21T06:18:00.070Z,99.90
2022-09-21T06:20:28.392Z,99.90
2022-09-21T06:23:01.875Z,99.90
2022-09-21T06:25:31.575Z,99.90
2022-09-21T06:28:04.348Z,99.90
2022-09-21T06:30:34.529Z,99.90
2022-09-21T06:33:03.387Z,99.90
2022-09-21T06:35:31.914Z,99.90
2022-09-21T06:38:00.478Z,99.90
2022-09-21T06:40:28.916Z,99.90
2022-09-21T06:43:04.525Z,99.90
2022-09-21T06:45:32.839Z,99.90
2022-09-21T06:48:01.133Z,99.90
2022-09-21T06:50:29.423Z,99.90
2022-09-21T06:53:00.497Z,99.90
2022-09-21T06:55:29.359Z,99.90
2022-09-21T06:58:02.853Z,99.90
2022-09-21T07:00:31.236Z,99.90
2022-09-21T07:02:59.562Z,99.90
2022-09-21T07:05:27.871Z,99.90
2022-09-21T07:07:59.308Z,99.90
2022-09-21T07:10:27.663Z,99.90
2022-09-21T07:12:55.959Z,99.90
2022-09-21T07:15:28.988Z,99.90
2022-09-21T07:18:05.954Z,99.90
2022-09-21T07:20:34.426Z,99.90
2022-09-21T07:23:02.702Z,99.90
2022-09-21T07:25:31.310Z,99.90
2022-09-21T07:28:01.531Z,99.90
2022-09-21T07:30:31.189Z,99.90
2022-09-21T07:32:59.614Z,99.90
2022-09-21T07:35:27.906Z,99.90
2022-09-21T07:37:58.513Z,99.90
2022-09-21T07:40:29.351Z,99.90
2022-09-21T07:42:58.958Z,99.90
2022-09-21T07:45:27.447Z,99.90
2022-09-21T07:47:57.139Z,99.90
2022-09-21T07:50:25.439Z,99.90
2022-09-21T07:52:53.776Z,99.90
2022-09-21T07:55:22.069Z,99.90
2022-09-21T07:58:08.606Z,99.90
2022-09-21T08:00:38.307Z,99.90
2022-09-21T08:03:08.020Z,99.90
2022-09-21T08:05:36.427Z,99.90
2022-09-21T08:08:04.850Z,99.90
2022-09-21T08:10:33.768Z,99.90
2022-09-21T08:13:06.443Z,99.90
2022-09-21T08:15:49.410Z,99.90
2022-09-21T08:18:22.940Z,99.90
2022-09-21T08:21:03.360Z,99.90
2022-09-21T08:23:31.728Z,99.90
2022-09-21T08:26:09.498Z,99.90
2022-09-21T08:28:38.038Z,99.90
2022-09-21T08:31:08.305Z,99.90
2022-09-21T08:33:38.044Z,99.90
2022-09-21T08:36:06.824Z,99.90
2022-09-21T08:38:35.843Z,99.90
2022-09-21T08:41:04.746Z,99.90
2022-09-21T08:43:35.013Z,99.90
2022-09-21T08:46:05.335Z,99.90
2022-09-21T08:48:37.953Z,99.90
2022-09-21T08:51:08.790Z,99.90
2022-09-21T08:53:38.971Z,99.90
2022-09-21T08:56:09.527Z,99.90
2022-09-21T08:58:40.568Z,99.90
2022-09-21T09:01:22.600Z,99.90
2022-09-21T09:04:02.642Z,99.90
2022-09-21T09:06:36.740Z,99.90
2022-09-21T09:09:21.458Z,99.90
2022-09-21T09:12:00.027Z,99.90
2022-09-21T09:14:37.264Z,99.90
2022-09-21T09:17:18.086Z,99.90
2022-09-21T09:19:48.389Z,99.90
2022-09-21T09:22:20.347Z,99.90
2022-09-21T09:24:49.851Z,99.90
2022-09-21T09:27:20.472Z,99.90
2022-09-21T09:29:51.544Z,99.90
2022-09-21T09:32:19.843Z,99.90
2022-09-21T09:34:53.450Z,99.90
2022-09-21T09:37:25.943Z,99.90
2022-09-21T09:39:57.088Z,99.90
2022-09-21T09:42:37.437Z,99.90
2022-09-21T09:45:19.588Z,99.90
2022-09-21T09:47:56.133Z,99.90
2022-09-21T09:50:27.418Z,99.90
2022-09-21T09:53:00.820Z,99.90
2022-09-21T09:55:32.970Z,99.90
2022-09-21T09:58:01.281Z,99.90
2022-09-21T10:00:29.672Z,99.90
2022-09-21T10:02:58.762Z,99.90
2022-09-21T10:05:32.883Z,99.90
2022-09-21T10:08:02.885Z,99.90
2022-09-21T10:10:35.584Z,99.90
2022-09-21T10:13:13.010Z,99.90
2022-09-21T10:15:45.907Z,99.90
2022-09-21T10:18:20.322Z,99.90
2022-09-21T10:20:59.266Z,99.90
2022-09-21T10:23:29.068Z,99.90
2022-09-21T10:26:02.671Z,99.90
2022-09-21T10:28:31.438Z,99.90
2022-09-21T10:31:13.690Z,99.90
2022-09-21T10:33:49.129Z,99.90
2022-09-21T10:36:28.456Z,99.90
2022-09-21T10:39:00.269Z,99.90
2022-09-21T10:41:28.606Z,99.90
2022-09-21T10:43:56.935Z,99.90
2022-09-21T10:46:35.171Z,99.90
2022-09-21T10:49:03.755Z,99.90
2022-09-21T10:51:33.882Z,99.90
2022-09-21T10:54:03.732Z,99.90
2022-09-21T10:56:32.039Z,99.90
2022-09-21T10:59:14.534Z,99.90
2022-09-21T11:01:45.516Z,99.90
2022-09-21T11:04:15.847Z,99.90
2022-09-21T11:06:55.847Z,99.90
2022-09-21T11:09:26.937Z,99.90
2022-09-21T11:11:58.634Z,99.90
2022-09-21T11:14:36.503Z,99.90
2022-09-21T11:17:10.300Z,99.90
2022-09-21T11:19:40.029Z,99.90
2022-09-21T11:22:13.307Z,99.90
2022-09-21T11:24:46.512Z,99.90
2022-09-21T11:27:18.777Z,99.90
2022-09-21T11:29:51.326Z,99.80
2022-09-21T11:32:32.236Z,99.90
2022-09-21T11:35:33.064Z,99.90
2022-09-21T11:38:06.490Z,99.90
2022-09-21T11:40:46.975Z,99.90
2022-09-21T11:43:26.874Z,99.90
2022-09-21T11:46:00.256Z,99.90
2022-09-21T11:48:37.688Z,99.90
2022-09-21T11:51:19.772Z,99.90
2022-09-21T11:54:15.966Z,99.90
2022-09-21T11:56:47.825Z,99.90
2022-09-21T11:59:25.482Z,99.90
2022-09-21T12:02:05.574Z,99.90
2022-09-21T12:04:42.581Z,99.90
2022-09-21T12:07:24.381Z,99.90
2022-09-21T12:10:03.673Z,99.50
2022-09-21T12:12:38.374Z,99.80
2022-09-21T12:15:11.231Z,99.50
2022-09-21T12:17:45.670Z,99.90
2022-09-21T12:20:17.008Z,98.60
2022-09-21T12:22:46.384Z,98.50
2022-09-21T12:25:16.994Z,98.60
2022-09-21T12:27:49.618Z,98.80
2022-09-21T12:30:18.900Z,99.10
2022-09-21T12:32:54.133Z,98.60
2022-09-21T12:35:25.993Z,98.60
2022-09-21T12:37:58.610Z,97.90
2022-09-21T12:40:31.773Z,97.50
2022-09-21T12:43:04.526Z,97.70
2022-09-21T12:45:34.158Z,97.50
2022-09-21T12:48:06.251Z,98.20
2022-09-21T12:50:39.671Z,98.00
2022-09-21T12:53:07.976Z,98.60
2022-09-21T12:55:44.370Z,98.80
2022-09-21T12:58:25.543Z,99.00
2022-09-21T13:00:59.285Z,99.00
2022-09-21T13:03:30.635Z,99.10
2022-09-21T13:06:14.990Z,97.70
2022-09-21T13:08:43.986Z,96.90
2022-09-21T13:11:12.356Z,97.20
2022-09-21T13:13:45.553Z,97.90
2022-09-21T13:16:24.745Z,98.40
2022-09-21T13:18:56.446Z,98.40
2022-09-21T13:21:26.837Z,98.70
2022-09-21T13:23:57.223Z,98.50
2022-09-21T13:26:34.590Z,98.00
2022-09-21T13:29:28.033Z,98.50
2022-09-21T13:31:58.660Z,97.40
2022-09-21T13:34:29.297Z,96.40
2022-09-21T13:37:33.968Z,96.10
2022-09-21T13:40:38.781Z,95.70
2022-09-21T13:43:20.444Z,96.20
2022-09-21T13:45:57.840Z,95.90
2022-09-21T13:48:29.396Z,96.30
2022-09-21T13:50:59.553Z,96.30
2022-09-21T13:53:33.750Z,97.20
2022-09-21T13:56:02.993Z,97.80
2022-09-21T13:58:32.753Z,98.70
2022-09-21T14:01:03.599Z,99.30
2022-09-21T14:03:37.350Z,99.50
2022-09-21T14:06:07.660Z,99.90
2022-09-21T14:08:38.014Z,99.90
2022-09-21T14:11:07.964Z,99.90
2022-09-21T14:13:37.289Z,99.90
2022-09-21T14:16:29.333Z,99.90
2022-09-21T14:18:57.685Z,99.90
2022-09-21T14:21:26.181Z,99.90
2022-09-21T14:24:20.319Z,99.90
2022-09-21T14:27:09.486Z,99.90
2022-09-21T14:29:44.207Z,99.90
2022-09-21T14:32:17.042Z,99.90
2022-09-21T14:34:47.199Z,99.90
2022-09-21T14:37:33.592Z,99.90
2022-09-21T14:40:04.003Z,99.90
2022-09-21T14:42:32.878Z,99.90
2022-09-21T14:45:02.058Z,99.90
2022-09-21T14:47:53.846Z,99.90
2022-09-21T14:50:32.462Z,99.90
2022-09-21T14:53:09.827Z,99.90
2022-09-21T14:55:49.130Z,99.90
2022-09-21T14:58:25.259Z,99.90
2022-09-21T15:00:54.545Z,99.90
2022-09-21T15:03:58.616Z,99.90
2022-09-21T15:06:48.139Z,99.90
2022-09-21T15:09:49.046Z,99.90
2022-09-21T15:12:18.793Z,99.90
2022-09-21T15:14:48.179Z,99.90
2022-09-21T15:17:24.039Z,99.90
2022-09-21T15:19:58.082Z,99.90
2022-09-21T15:22:27.525Z,99.90
2022-09-21T15:24:56.638Z,99.90
2022-09-21T15:27:26.632Z,99.90
2022-09-21T15:29:55.885Z,99.90
2022-09-21T15:32:36.293Z,99.90
2022-09-21T15:35:07.658Z,99.90
2022-09-21T15:37:36.576Z,99.90
2022-09-21T15:40:06.339Z,99.90
2022-09-21T15:42:36.710Z,99.90
2022-09-21T15:45:14.743Z,99.90
2022-09-21T15:47:48.482Z,99.90
2022-09-21T15:50:20.653Z,99.90
2022-09-21T15:52:53.249Z,99.90
2022-09-21T15:55:22.240Z,99.90
2022-09-21T15:57:50.836Z,99.90
2022-09-21T16:00:22.023Z,99.90
2022-09-21T16:03:06.121Z,99.90
2022-09-21T16:05:44.741Z,99.90
2022-09-21T16:08:30.352Z,99.90
2022-09-21T16:11:18.726Z,99.90
2022-09-21T16:14:04.979Z,99.90
2022-09-21T16:16:33.339Z,99.90
2022-09-21T16:19:01.767Z,99.90
2022-09-21T16:21:32.741Z,99.90
2022-09-21T16:24:09.875Z,99.90
2022-09-21T16:26:38.896Z,99.90
2022-09-21T16:29:29.381Z,99.90
2022-09-21T16:32:23.960Z,99.90
2022-09-21T16:34:53.119Z,99.90
2022-09-21T16:37:28.688Z,99.90
2022-09-21T16:39:57.930Z,99.90
2022-09-21T16:42:27.969Z,99.90
2022-09-21T16:44:56.309Z,99.90
2022-09-21T16:47:26.723Z,99.90
2022-09-21T16:49:56.407Z,99.90
2022-09-21T16:52:26.585Z,99.90
2022-09-21T16:54:56.491Z,99.90
2022-09-21T16:57:25.013Z,99.90
2022-09-21T16:59:53.296Z,99.90
2022-09-21T17:02:21.722Z,99.90
2022-09-21T17:04:50.107Z,99.90
2022-09-21T17:07:18.924Z,99.90
2022-09-21T17:09:48.573Z,99.90
2022-09-21T17:12:18.488Z,99.90
2022-09-21T17:14:49.017Z,99.90
2022-09-21T17:17:18.458Z,99.90
2022-09-21T17:19:46.912Z,99.90
2022-09-21T17:22:17.168Z,99.90
2022-09-21T17:24:54.698Z,99.90
2022-09-21T17:27:24.247Z,99.90
2022-09-21T17:29:53.922Z,99.90
2022-09-21T17:32:23.320Z,99.90
2022-09-21T17:34:55.566Z,99.90
2022-09-21T17:37:24.171Z,99.90
2022-09-21T17:39:54.539Z,99.90
2022-09-21T17:42:24.974Z,99.90
2022-09-21T17:45:03.173Z,99.90
2022-09-21T17:47:33.728Z,99.90
2022-09-21T17:50:09.158Z,99.90
2022-09-21T17:52:55.592Z,99.90
2022-09-21T17:55:25.886Z,99.90
2022-09-21T17:58:06.939Z,99.90
2022-09-21T18:00:40.176Z,99.90
2022-09-21T18:03:16.860Z,99.90
2022-09-21T18:05:45.529Z,99.90
2022-09-21T18:08:14.292Z,99.90
2022-09-21T18:10:45.574Z,99.90
2022-09-21T18:13:29.487Z,99.90
2022-09-21T18:16:04.565Z,99.90
2022-09-21T18:18:40.163Z,99.90
2022-09-21T18:21:13.112Z,99.90
2022-09-21T18:23:45.515Z,99.90
2022-09-21T18:26:16.981Z,99.90
2022-09-21T18:28:46.324Z,99.90
2022-09-21T18:31:26.141Z,99.90
2022-09-21T18:33:57.364Z,99.90
2022-09-21T18:36:28.367Z,99.90
2022-09-21T18:39:03.715Z,99.90
2022-09-21T18:41:37.431Z,99.90
2022-09-21T18:44:13.165Z,99.90
2022-09-21T18:46:56.854Z,99.90
2022-09-21T18:49:37.026Z,99.90
2022-09-21T18:52:09.627Z,99.90
2022-09-21T18:54:39.478Z,99.90
2022-09-21T18:57:14.213Z,99.90
2022-09-21T18:59:45.057Z,99.90
2022-09-21T19:02:22.172Z,99.90
2022-09-21T19:04:51.006Z,99.90
2022-09-21T19:07:27.682Z,99.90
2022-09-21T19:10:05.192Z,99.90
2022-09-21T19:12:47.254Z,99.90
2022-09-21T19:15:24.258Z,99.90
2022-09-21T19:18:08.021Z,99.90
2022-09-21T19:20:44.237Z,99.90
2022-09-21T19:23:26.055Z,99.90
2022-09-21T19:26:01.514Z,99.90
2022-09-21T19:28:48.023Z,99.90
2022-09-21T19:31:19.083Z,99.90
2022-09-21T19:33:53.709Z,99.90
2022-09-21T19:36:27.214Z,99.90
2022-09-21T19:39:00.850Z,99.90
2022-09-21T19:41:40.409Z,99.90
2022-09-21T19:44:17.670Z,99.90
2022-09-21T19:47:00.610Z,99.90
2022-09-21T19:49:33.586Z,99.90
2022-09-21T19:52:02.176Z,99.90
2022-09-21T19:54:48.388Z,99.90
2022-09-21T19:57:35.381Z,99.90
2022-09-21T20:00:06.706Z,99.90
2022-09-21T20:02:37.162Z,99.90
2022-09-21T20:05:07.566Z,99.90
2022-09-21T20:07:42.582Z,99.90
2022-09-21T20:10:42.025Z,99.90
2022-09-21T20:13:21.731Z,99.90
2022-09-21T20:16:00.275Z,99.90
2022-09-21T20:18:38.724Z,99.90
2022-09-21T20:24:02.699Z,99.90
2022-09-21T20:26:31.319Z,99.90
2022-09-21T20:29:00.109Z,99.90
2022-09-21T20:31:29.828Z,99.90
2022-09-21T20:33:58.143Z,99.90
2022-09-21T20:36:26.495Z,99.90
2022-09-21T20:38:56.697Z,99.90
2022-09-21T20:41:25.397Z,99.90
2022-09-21T20:43:55.513Z,99.90
2022-09-21T20:46:23.902Z,99.90
2022-09-21T20:49:00.152Z,99.90
2022-09-21T20:51:28.706Z,99.90
2022-09-21T20:53:58.000Z,99.90
2022-09-21T20:56:26.313Z,99.90
2022-09-21T20:58:54.640Z,99.90
2022-09-21T21:01:27.388Z,99.90
2022-09-21T21:04:03.517Z,99.90
2022-09-21T21:06:35.297Z,99.90
2022-09-21T21:09:03.595Z,99.90
2022-09-21T21:11:31.902Z,99.90
2022-09-21T21:14:00.197Z,99.90
2022-09-21T21:16:28.519Z,99.90
2022-09-21T21:18:57.254Z,99.90
2022-09-21T21:21:26.955Z,99.90
2022-09-21T21:24:12.736Z,99.90
2022-09-21T21:29:29.297Z,99.90
2022-09-21T21:31:59.045Z,99.90
2022-09-21T21:34:29.916Z,99.90
2022-09-21T21:36:59.775Z,99.90
2022-09-21T21:39:28.082Z,99.90
2022-09-21T21:41:56.357Z,99.90
2022-09-21T21:44:24.656Z,99.90
2022-09-21T21:46:53.815Z,99.90
2022-09-21T21:49:25.193Z,99.90
2022-09-21T21:51:53.635Z,99.90
2022-09-21T21:54:23.764Z,99.90
2022-09-21T21:56:52.274Z,99.90
2022-09-21T21:59:20.601Z,99.90
2022-09-21T22:01:49.373Z,99.90
2022-09-21T22:04:17.681Z,99.90
2022-09-21T22:06:45.946Z,99.90
2022-09-21T22:09:14.701Z,99.90
2022-09-21T22:11:44.372Z,99.90
2022-09-21T22:14:12.767Z,99.90
2022-09-21T22:16:41.118Z,99.90
2022-09-21T22:19:09.610Z,99.90
2022-09-21T22:21:40.926Z,99.90
2022-09-21T22:24:11.147Z,99.90
2022-09-21T22:26:41.034Z,99.90
2022-09-21T22:29:11.827Z,99.90
2022-09-21T22:31:42.375Z,99.90
2022-09-21T22:34:10.739Z,99.90
2022-09-21T22:36:39.164Z,99.90
2022-09-21T22:39:07.990Z,99.90
2022-09-21T22:41:37.074Z,99.90
2022-09-21T22:44:05.423Z,99.90
2022-09-21T22:46:35.168Z,99.90
2022-09-21T22:49:03.450Z,99.90
2022-09-21T22:51:31.766Z,99.90
2022-09-21T22:54:01.401Z,99.90
2022-09-21T22:56:30.552Z,99.90
2022-09-21T22:58:59.717Z,99.90
2022-09-21T23:01:28.990Z,99.90
2022-09-21T23:03:59.976Z,99.90
2022-09-21T23:06:32.485Z,99.90
2022-09-21T23:09:01.985Z,99.90
2022-09-21T23:11:31.685Z,99.90
2022-09-21T23:14:00.268Z,99.90
2022-09-21T23:16:29.175Z,99.90
2022-09-21T23:18:58.990Z,99.90
2022-09-21T23:21:29.351Z,99.90
2022-09-21T23:23:59.934Z,99.90
2022-09-21T23:26:30.084Z,99.90
2022-09-21T23:28:59.240Z,99.90
2022-09-21T23:31:27.678Z,99.90
2022-09-21T23:33:58.087Z,99.90
2022-09-21T23:36:29.758Z,99.90
2022-09-21T23:38:58.312Z,99.90
2022-09-21T23:41:27.406Z,99.90
2022-09-21T23:43:55.759Z,99.90
2022-09-21T23:46:25.094Z,99.90
2022-09-21T23:48:53.470Z,99.90
2022-09-21T23:51:23.186Z,99.90
2022-09-21T23:53:51.614Z,99.90
2022-09-21T23:56:20.925Z,99.90
2022-09-21T23:58:49.327Z,99.90
